createdAt,value
2023-03-29T00:01:06.536Z,0.90
2023-03-29T00:03:35.081Z,0.80
2023-03-29T00:06:05.436Z,0.88
2023-03-29T00:08:35.024Z,0.93
2023-03-29T00:11:05.430Z,1.00
2023-03-29T00:13:34.330Z,0.80
2023-03-29T00:16:02.871Z,0.90
2023-03-29T00:18:31.367Z,0.90
2023-03-29T00:21:01.053Z,0.90
2023-03-29T00:23:29.691Z,0.98
2023-03-29T00:25:58.328Z,0.80
2023-03-29T00:28:28.127Z,0.90
2023-03-29T00:31:06.097Z,1.02
2023-03-29T00:33:35.249Z,1.02
2023-03-29T00:36:04.808Z,1.00
2023-03-29T00:38:33.856Z,0.80
2023-03-29T00:41:03.792Z,0.75
2023-03-29T00:43:59.087Z,0.88
2023-03-29T00:46:29.856Z,1.10
2023-03-29T00:49:04.506Z,0.73
2023-03-29T00:51:36.692Z,0.90
2023-03-29T00:54:08.592Z,0.82
2023-03-29T00:56:39.706Z,0.90
2023-03-29T00:59:13.734Z,1.00
2023-03-29T01:01:50.430Z,1.10
2023-03-29T01:04:24.926Z,0.95
2023-03-29T01:06:58.149Z,0.80
2023-03-29T01:09:30.232Z,0.82
2023-03-29T01:12:02.742Z,1.00
2023-03-29T01:14:36.778Z,0.80
2023-03-29T01:17:06.544Z,0.77
2023-03-29T01:19:39.981Z,1.08
2023-03-29T01:22:22.418Z,0.90
2023-03-29T01:25:06.040Z,0.90
2023-03-29T01:27:48.670Z,0.80
2023-03-29T01:30:22.386Z,0.80
2023-03-29T01:32:56.901Z,0.95
2023-03-29T01:35:32.483Z,0.80
2023-03-29T01:38:07.309Z,0.95
2023-03-29T01:40:36.177Z,0.90
2023-03-29T01:43:14.496Z,0.80
2023-03-29T01:45:48.825Z,0.93
2023-03-29T01:48:25.452Z,0.95
2023-03-29T01:51:00.064Z,1.10
2023-03-29T01:53:35.648Z,0.80
2023-03-29T01:56:08.645Z,0.93
2023-03-29T01:58:42.743Z,0.90
2023-03-29T02:01:17.706Z,0.70
2023-03-29T02:03:50.694Z,0.80
2023-03-29T02:06:24.662Z,0.60
2023-03-29T02:08:54.354Z,0.88
2023-03-29T02:11:24.516Z,0.70
2023-03-29T02:13:54.421Z,0.80
2023-03-29T02:16:23.203Z,0.70
2023-03-29T02:18:54.108Z,0.90
2023-03-29T02:21:27.671Z,0.90
2023-03-29T02:23:57.208Z,0.80
2023-03-29T02:26:26.293Z,0.70
2023-03-29T02:28:56.387Z,0.70
2023-03-29T02:31:30.277Z,0.80
2023-03-29T02:34:03.353Z,0.90
2023-03-29T02:36:40.416Z,0.60
2023-03-29T02:39:13.648Z,0.90
2023-03-29T02:41:45.294Z,0.70
2023-03-29T02:44:19.437Z,0.80
2023-03-29T02:46:51.394Z,0.75
2023-03-29T02:49:20.375Z,0.73
2023-03-29T02:51:52.589Z,0.88
2023-03-29T02:54:25.848Z,0.88
2023-03-29T02:56:58.913Z,0.68
2023-03-29T02:59:30.867Z,0.68
2023-03-29T03:01:59.442Z,0.70
2023-03-29T03:04:29.536Z,0.90
2023-03-29T03:06:58.079Z,1.00
2023-03-29T03:09:27.507Z,0.70
2023-03-29T03:11:56.153Z,0.80
2023-03-29T03:14:28.222Z,1.00
2023-03-29T03:16:59.085Z,0.73
2023-03-29T03:19:27.683Z,0.77
2023-03-29T03:21:56.895Z,0.90
2023-03-29T03:24:25.403Z,0.90
2023-03-29T03:26:54.471Z,0.80
2023-03-29T03:29:23.242Z,0.80
2023-03-29T03:32:12.329Z,0.82
2023-03-29T03:34:59.623Z,0.88
2023-03-29T03:37:29.568Z,0.73
2023-03-29T03:39:58.110Z,0.70
2023-03-29T03:42:28.788Z,0.88
2023-03-29T03:44:58.084Z,0.88
2023-03-29T03:47:46.830Z,0.80
2023-03-29T03:50:31.290Z,0.88
2023-03-29T03:52:59.886Z,0.70
2023-03-29T03:55:36.836Z,0.90
2023-03-29T03:58:12.623Z,0.85
2023-03-29T04:00:41.774Z,1.05
2023-03-29T04:03:26.042Z,0.85
2023-03-29T04:05:54.641Z,0.90
2023-03-29T04:08:27.212Z,0.65
2023-03-29T04:11:10.493Z,0.65
2023-03-29T04:13:42.277Z,1.10
2023-03-29T04:16:31.477Z,0.75
2023-03-29T04:19:12.899Z,0.80
2023-03-29T04:21:42.834Z,0.70
2023-03-29T04:24:11.321Z,0.80
2023-03-29T04:26:42.784Z,0.80
2023-03-29T04:29:18.933Z,0.80
2023-03-29T04:31:52.052Z,0.70
2023-03-29T04:34:38.426Z,0.70
2023-03-29T04:37:10.439Z,0.95
2023-03-29T04:39:39.278Z,0.90
2023-03-29T04:42:09.500Z,0.90
2023-03-29T04:44:38.048Z,0.80
2023-03-29T04:47:12.978Z,0.90
2023-03-29T04:49:56.077Z,0.70
2023-03-29T04:52:40.856Z,0.85
2023-03-29T04:55:10.337Z,1.08
2023-03-29T04:57:53.335Z,0.80
2023-03-29T05:00:27.445Z,0.95
2023-03-29T05:03:14.877Z,0.95
2023-03-29T05:06:06.566Z,1.10
2023-03-29T05:08:38.952Z,1.40
2023-03-29T05:11:27.605Z,1.20
2023-03-29T05:14:00.700Z,1.40
2023-03-29T05:19:00.224Z,1.17
2023-03-29T05:21:30.246Z,1.10
2023-03-29T05:24:02.841Z,1.13
2023-03-29T05:26:51.785Z,0.80
2023-03-29T05:29:20.659Z,1.05
2023-03-29T05:31:55.598Z,1.35
2023-03-29T05:34:25.069Z,1.30
2023-03-29T05:36:59.107Z,1.13
2023-03-29T05:39:31.464Z,1.10
2023-03-29T05:42:00.933Z,1.08
2023-03-29T05:44:33.192Z,1.17
2023-03-29T05:47:11.322Z,0.90
2023-03-29T05:49:39.867Z,1.00
2023-03-29T05:52:16.077Z,1.20
2023-03-29T05:54:44.834Z,1.20
2023-03-29T05:57:14.016Z,0.93
2023-03-29T05:59:42.836Z,0.90
2023-03-29T06:02:12.592Z,1.30
2023-03-29T06:04:46.759Z,1.58
2023-03-29T06:07:25.502Z,1.15
2023-03-29T06:10:23.492Z,1.08
2023-03-29T06:12:57.602Z,1.33
2023-03-29T06:15:26.893Z,1.20
2023-03-29T06:18:01.468Z,0.90
2023-03-29T06:20:30.320Z,1.02
2023-03-29T06:23:06.179Z,1.17
2023-03-29T06:25:35.261Z,1.00
2023-03-29T06:28:03.966Z,1.38
2023-03-29T06:30:32.866Z,1.20
2023-03-29T06:33:02.252Z,1.30
2023-03-29T06:35:49.406Z,1.02
2023-03-29T06:38:23.304Z,1.23
2023-03-29T06:41:05.208Z,1.50
2023-03-29T06:43:54.965Z,1.40
2023-03-29T06:46:27.056Z,1.63
2023-03-29T06:48:58.077Z,2.10
2023-03-29T06:51:34.636Z,1.20
2023-03-29T06:54:05.350Z,1.38
2023-03-29T06:56:34.201Z,1.25
2023-03-29T06:59:09.252Z,1.23
2023-03-29T07:01:49.187Z,1.30
2023-03-29T07:04:27.678Z,1.42
2023-03-29T07:07:24.219Z,1.35
2023-03-29T07:10:10.448Z,1.10
2023-03-29T07:12:57.474Z,1.30
2023-03-29T07:15:27.564Z,1.20
2023-03-29T07:18:22.149Z,1.38
2023-03-29T07:20:52.139Z,1.00
2023-03-29T07:23:21.348Z,1.35
2023-03-29T07:25:54.066Z,1.10
2023-03-29T07:28:22.747Z,1.30
2023-03-29T07:30:54.954Z,1.45
2023-03-29T07:33:24.284Z,1.38
2023-03-29T07:36:06.937Z,1.23
2023-03-29T07:38:36.800Z,1.10
2023-03-29T07:41:12.886Z,1.40
2023-03-29T07:44:04.850Z,1.27
2023-03-29T07:46:33.409Z,1.10
2023-03-29T07:49:01.933Z,1.00
2023-03-29T07:51:31.054Z,1.40
2023-03-29T07:54:06.298Z,1.48
2023-03-29T07:56:54.679Z,1.13
2023-03-29T07:59:30.944Z,1.20
2023-03-29T08:02:16.465Z,1.10
2023-03-29T08:04:50.687Z,1.27
2023-03-29T08:07:21.037Z,1.48
2023-03-29T08:10:10.695Z,1.20
2023-03-29T08:13:16.248Z,1.35
2023-03-29T08:16:11.220Z,1.20
2023-03-29T08:18:45.863Z,1.27
2023-03-29T08:21:15.866Z,1.08
2023-03-29T08:23:48.472Z,1.00
2023-03-29T08:26:27.730Z,1.20
2023-03-29T08:28:59.533Z,1.30
2023-03-29T08:31:29.382Z,1.10
2023-03-29T08:33:58.037Z,1.13
2023-03-29T08:36:55.707Z,1.10
2023-03-29T08:39:35.001Z,1.10
2023-03-29T08:42:35.403Z,1.20
2023-03-29T08:45:14.638Z,1.10
2023-03-29T08:47:53.634Z,1.30
2023-03-29T08:50:33.710Z,1.30
2023-03-29T08:53:07.742Z,1.20
2023-03-29T08:55:58.383Z,1.10
2023-03-29T08:58:52.639Z,0.80
2023-03-29T09:01:24.418Z,1.10
2023-03-29T09:04:05.740Z,1.30
2023-03-29T09:09:32.762Z,1.00
2023-03-29T09:12:20.053Z,0.98
2023-03-29T09:15:00.808Z,1.20
2023-03-29T09:17:40.193Z,1.23
2023-03-29T09:20:24.442Z,1.20
2023-03-29T09:23:03.294Z,1.20
2023-03-29T09:25:54.074Z,1.08
2023-03-29T09:28:36.988Z,1.23
2023-03-29T09:33:42.946Z,1.20
2023-03-29T09:36:23.988Z,1.20
2023-03-29T09:38:55.558Z,1.13
2023-03-29T09:41:31.584Z,1.10
2023-03-29T09:44:12.709Z,1.15
2023-03-29T09:46:54.211Z,1.30
2023-03-29T09:49:31.104Z,1.00
2023-03-29T09:52:05.787Z,1.08
2023-03-29T09:54:34.498Z,1.27
2023-03-29T09:57:21.589Z,1.23
2023-03-29T09:59:52.500Z,1.00
2023-03-29T10:02:22.135Z,1.08
2023-03-29T10:04:58.703Z,1.33
2023-03-29T10:07:36.001Z,1.20
2023-03-29T10:10:10.444Z,1.73
2023-03-29T10:12:42.593Z,1.17
2023-03-29T10:15:26.818Z,1.30
2023-03-29T10:18:00.674Z,1.20
2023-03-29T10:20:30.989Z,1.40
2023-03-29T10:23:00.711Z,1.25
2023-03-29T10:25:31.703Z,1.10
2023-03-29T10:28:06.953Z,1.05
2023-03-29T10:30:38.532Z,1.02
2023-03-29T10:33:16.107Z,1.08
2023-03-29T10:35:48.879Z,1.02
2023-03-29T10:38:19.715Z,1.27
2023-03-29T10:40:50.300Z,1.10
2023-03-29T10:43:23.392Z,1.15
2023-03-29T10:45:53.746Z,1.35
2023-03-29T10:48:26.485Z,0.93
2023-03-29T10:50:59.847Z,1.50
2023-03-29T10:53:32.409Z,1.40
2023-03-29T10:56:25.491Z,0.85
2023-03-29T10:59:18.295Z,1.45
2023-03-29T11:01:53.743Z,1.20
2023-03-29T11:04:29.449Z,1.20
2023-03-29T11:07:19.672Z,1.00
2023-03-29T11:09:56.139Z,1.45
2023-03-29T11:12:32.345Z,1.33
2023-03-29T11:15:19.525Z,1.08
2023-03-29T11:18:03.346Z,1.00
2023-03-29T11:20:41.816Z,1.20
2023-03-29T11:23:25.439Z,1.20
2023-03-29T11:26:03.981Z,1.20
2023-03-29T11:28:42.270Z,1.10
2023-03-29T11:31:20.194Z,1.13
2023-03-29T11:33:57.555Z,1.02
2023-03-29T11:36:32.891Z,1.05
2023-03-29T11:39:13.186Z,1.20
2023-03-29T11:41:45.188Z,1.20
2023-03-29T11:44:18.783Z,0.90
2023-03-29T11:46:53.148Z,1.05
2023-03-29T11:49:27.736Z,1.00
2023-03-29T11:52:03.134Z,0.80
2023-03-29T11:54:39.526Z,1.50
2023-03-29T11:57:15.461Z,1.30
2023-03-29T11:59:55.365Z,0.90
2023-03-29T12:02:29.490Z,1.00
2023-03-29T12:05:03.343Z,1.30
2023-03-29T12:07:36.753Z,1.05
2023-03-29T12:10:15.540Z,0.93
2023-03-29T12:12:56.151Z,0.90
2023-03-29T12:15:26.896Z,0.93
2023-03-29T12:18:06.977Z,1.20
2023-03-29T12:20:39.702Z,1.10
2023-03-29T12:23:15.722Z,0.80
2023-03-29T12:25:54.170Z,1.02
2023-03-29T12:28:34.439Z,0.90
2023-03-29T12:31:12.910Z,0.75
2023-03-29T12:34:07.056Z,1.08
2023-03-29T12:37:07.505Z,1.10
2023-03-29T12:39:48.810Z,0.80
2023-03-29T12:42:46.153Z,1.10
2023-03-29T12:45:35.623Z,0.90
2023-03-29T12:48:05.053Z,0.95
2023-03-29T12:50:35.984Z,0.90
2023-03-29T12:53:07.436Z,0.90
2023-03-29T12:55:49.494Z,1.00
2023-03-29T12:58:42.914Z,0.80
2023-03-29T13:01:24.037Z,1.02
2023-03-29T13:03:58.291Z,1.00
2023-03-29T13:06:32.654Z,0.90
2023-03-29T13:09:03.612Z,1.17
2023-03-29T13:11:39.922Z,0.88
2023-03-29T13:14:15.610Z,0.85
2023-03-29T13:16:44.243Z,1.15
2023-03-29T13:19:30.506Z,1.00
2023-03-29T13:22:10.647Z,1.10
2023-03-29T13:27:30.308Z,1.00
2023-03-29T13:30:16.646Z,1.15
2023-03-29T13:32:52.503Z,1.00
2023-03-29T13:35:31.963Z,1.00
2023-03-29T13:38:11.039Z,1.10
2023-03-29T13:40:46.891Z,0.90
2023-03-29T13:43:30.940Z,1.13
2023-03-29T13:46:21.071Z,1.00
2023-03-29T13:49:04.783Z,1.00
2023-03-29T13:51:37.999Z,1.30
2023-03-29T13:54:23.059Z,1.08
2023-03-29T13:57:01.384Z,0.90
2023-03-29T13:59:36.426Z,0.95
2023-03-29T14:02:07.419Z,1.20
2023-03-29T14:04:42.132Z,1.10
2023-03-29T14:07:15.436Z,1.08
2023-03-29T14:09:46.481Z,1.02
2023-03-29T14:12:15.981Z,1.27
2023-03-29T14:14:58.407Z,0.95
2023-03-29T14:17:29.554Z,1.00
2023-03-29T14:19:59.449Z,1.20
2023-03-29T14:22:33.762Z,1.05
2023-03-29T14:25:06.352Z,1.10
2023-03-29T14:27:37.748Z,1.52
2023-03-29T14:30:21.545Z,1.25
2023-03-29T14:32:52.433Z,1.10
2023-03-29T14:35:30.149Z,1.10
2023-03-29T14:37:59.972Z,1.00
2023-03-29T14:40:28.596Z,1.00
2023-03-29T14:42:57.170Z,1.00
2023-03-29T14:45:26.276Z,1.13
2023-03-29T14:47:56.378Z,0.90
2023-03-29T14:50:28.400Z,1.20
2023-03-29T14:52:58.586Z,1.00
2023-03-29T14:55:27.460Z,0.90
2023-03-29T14:57:56.940Z,0.95
2023-03-29T15:00:30.109Z,1.10
2023-03-29T15:03:02.563Z,0.90
2023-03-29T15:05:38.552Z,1.00
2023-03-29T15:08:11.594Z,1.17
2023-03-29T15:10:42.977Z,1.10
2023-03-29T15:13:19.755Z,1.20
2023-03-29T15:15:52.433Z,1.02
2023-03-29T15:18:28.216Z,1.45
2023-03-29T15:20:56.873Z,1.10
2023-03-29T15:23:26.504Z,1.30
2023-03-29T15:25:58.326Z,1.05
2023-03-29T15:28:30.974Z,0.90
2023-03-29T15:31:07.643Z,1.40
2023-03-29T15:33:40.394Z,1.30
2023-03-29T15:36:11.031Z,1.23
2023-03-29T15:38:44.570Z,0.90
2023-03-29T15:43:43.926Z,1.17
2023-03-29T15:46:14.112Z,1.08
2023-03-29T15:48:44.238Z,1.00
2023-03-29T15:51:13.454Z,1.10
2023-03-29T15:53:42.760Z,1.10
2023-03-29T15:56:17.155Z,1.20
2023-03-29T15:58:46.491Z,1.00
2023-03-29T16:01:34.259Z,1.10
2023-03-29T16:04:05.430Z,1.17
2023-03-29T16:06:36.062Z,0.98
2023-03-29T16:09:06.173Z,1.08
2023-03-29T16:11:35.299Z,1.15
2023-03-29T16:14:03.984Z,1.40
2023-03-29T16:16:32.646Z,1.10
2023-03-29T16:19:01.110Z,1.08
2023-03-29T16:21:30.958Z,1.05
2023-03-29T16:23:59.453Z,1.30
2023-03-29T16:26:28.026Z,1.40
2023-03-29T16:28:56.430Z,1.17
2023-03-29T16:31:26.927Z,0.98
2023-03-29T16:33:55.762Z,1.20
2023-03-29T16:36:24.240Z,1.27
2023-03-29T16:38:54.427Z,1.30
2023-03-29T16:41:23.079Z,0.90
2023-03-29T16:43:51.573Z,1.20
2023-03-29T16:46:20.861Z,1.30
2023-03-29T16:48:51.361Z,1.05
2023-03-29T16:51:20.054Z,1.00
2023-03-29T16:53:49.112Z,1.00
2023-03-29T16:56:19.819Z,0.90
2023-03-29T16:58:48.293Z,1.17
2023-03-29T17:01:17.734Z,1.05
2023-03-29T17:03:46.177Z,1.10
2023-03-29T17:06:14.785Z,0.95
2023-03-29T17:08:43.394Z,1.10
2023-03-29T17:11:13.047Z,1.10
2023-03-29T17:13:43.421Z,1.23
2023-03-29T17:16:11.937Z,1.08
2023-03-29T17:18:40.366Z,1.30
2023-03-29T17:21:09.177Z,1.20
2023-03-29T17:23:37.642Z,1.58
2023-03-29T17:26:07.000Z,1.33
2023-03-29T17:28:36.093Z,1.40
2023-03-29T17:31:08.126Z,1.13
2023-03-29T17:33:36.875Z,1.40
2023-03-29T17:36:07.317Z,1.33
2023-03-29T17:38:37.917Z,1.40
2023-03-29T17:41:06.996Z,1.20
2023-03-29T17:43:35.599Z,1.20
2023-03-29T17:46:04.532Z,1.50
2023-03-29T17:48:34.928Z,2.35
2023-03-29T17:51:03.432Z,1.50
2023-03-29T17:53:31.979Z,1.83
2023-03-29T17:56:00.859Z,1.90
2023-03-29T17:58:29.473Z,2.20
2023-03-29T18:00:58.006Z,1.60
2023-03-29T18:03:27.079Z,1.77
2023-03-29T18:05:57.294Z,1.90
2023-03-29T18:08:25.862Z,1.80
2023-03-29T18:10:54.308Z,2.28
2023-03-29T18:13:25.338Z,2.15
2023-03-29T18:15:56.428Z,1.92
2023-03-29T18:18:24.982Z,1.70
2023-03-29T18:20:53.573Z,2.08
2023-03-29T18:23:23.375Z,2.17
2023-03-29T18:25:52.117Z,2.17
2023-03-29T18:28:20.610Z,2.30
2023-03-29T18:30:51.558Z,2.47
2023-03-29T18:33:20.066Z,2.30
2023-03-29T18:35:50.509Z,2.22
2023-03-29T18:38:20.895Z,2.20
2023-03-29T18:40:51.509Z,2.42
2023-03-29T18:43:20.045Z,2.22
2023-03-29T18:45:48.761Z,2.58
2023-03-29T18:48:17.297Z,2.38
2023-03-29T18:50:46.428Z,2.00
2023-03-29T18:53:15.498Z,2.00
2023-03-29T18:55:44.525Z,2.10
2023-03-29T18:58:15.959Z,2.63
2023-03-29T19:00:44.729Z,2.30
2023-03-29T19:03:13.536Z,2.65
2023-03-29T19:05:42.345Z,2.50
2023-03-29T19:08:11.139Z,2.55
2023-03-29T19:10:40.477Z,2.13
2023-03-29T19:13:08.988Z,2.47
2023-03-29T19:15:40.441Z,2.63
2023-03-29T19:18:09.089Z,2.30
2023-03-29T19:20:38.362Z,2.20
2023-03-29T19:23:06.825Z,2.42
2023-03-29T19:25:35.355Z,2.80
2023-03-29T19:28:04.930Z,2.55
2023-03-29T19:30:36.472Z,2.45
2023-03-29T19:33:06.311Z,3.30
2023-03-29T19:35:35.097Z,2.30
2023-03-29T19:38:03.755Z,2.55
2023-03-29T19:40:32.267Z,2.30
2023-03-29T19:43:00.822Z,2.25
2023-03-29T19:45:29.460Z,2.78
2023-03-29T19:48:02.942Z,2.63
2023-03-29T19:50:33.481Z,2.50
2023-03-29T19:53:01.880Z,2.63
2023-03-29T19:55:30.366Z,2.35
2023-03-29T19:57:58.950Z,2.60
2023-03-29T20:00:27.550Z,2.42
2023-03-29T20:02:56.533Z,2.60
2023-03-29T20:05:25.069Z,2.63
2023-03-29T20:07:55.374Z,2.40
2023-03-29T20:10:23.902Z,2.30
2023-03-29T20:12:52.407Z,2.00
2023-03-29T20:15:20.850Z,2.22
2023-03-29T20:17:51.308Z,2.53
2023-03-29T20:20:21.196Z,2.40
2023-03-29T20:22:49.693Z,2.47
2023-03-29T20:25:19.604Z,2.05
2023-03-29T20:27:49.334Z,2.28
2023-03-29T20:30:18.274Z,1.98
2023-03-29T20:32:47.180Z,1.92
2023-03-29T20:35:16.462Z,2.08
2023-03-29T20:37:44.973Z,2.60
2023-03-29T20:40:15.517Z,2.20
2023-03-29T20:42:46.263Z,2.35
2023-03-29T20:45:19.271Z,2.40
2023-03-29T20:47:57.405Z,2.22
2023-03-29T20:50:29.620Z,2.15
2023-03-29T20:53:03.743Z,2.05
2023-03-29T20:55:33.063Z,2.58
2023-03-29T20:58:03.506Z,2.40
2023-03-29T21:00:35.367Z,2.47
2023-03-29T21:03:04.524Z,2.33
2023-03-29T21:05:34.122Z,2.13
2023-03-29T21:08:04.220Z,2.40
2023-03-29T21:10:32.902Z,2.03
2023-03-29T21:13:03.068Z,2.30
2023-03-29T21:15:31.909Z,2.13
2023-03-29T21:18:00.592Z,2.03
2023-03-29T21:20:29.166Z,2.20
2023-03-29T21:22:57.815Z,2.28
2023-03-29T21:25:26.281Z,2.22
2023-03-29T21:27:54.714Z,2.25
2023-03-29T21:30:24.506Z,2.28
2023-03-29T21:32:52.940Z,1.98
2023-03-29T21:35:21.466Z,2.00
2023-03-29T21:37:49.889Z,2.00
2023-03-29T21:40:18.345Z,2.03
2023-03-29T21:42:46.767Z,1.95
2023-03-29T21:45:15.467Z,2.15
2023-03-29T21:47:45.366Z,2.42
2023-03-29T21:50:14.110Z,1.73
2023-03-29T21:52:42.533Z,1.98
2023-03-29T21:55:10.986Z,1.90
2023-03-29T21:57:39.418Z,1.95
2023-03-29T22:00:12.611Z,1.95
2023-03-29T22:02:42.302Z,2.03
2023-03-29T22:05:12.749Z,1.95
2023-03-29T22:07:41.100Z,2.45
2023-03-29T22:10:12.267Z,2.05
2023-03-29T22:12:41.354Z,2.05
2023-03-29T22:15:12.343Z,2.03
2023-03-29T22:17:41.359Z,2.05
2023-03-29T22:20:13.780Z,2.35
2023-03-29T22:22:46.196Z,2.00
2023-03-29T22:25:14.755Z,2.20
2023-03-29T22:27:43.873Z,2.20
2023-03-29T22:30:13.634Z,2.00
2023-03-29T22:32:42.355Z,2.05
2023-03-29T22:35:12.469Z,1.90
2023-03-29T22:37:42.563Z,2.17
2023-03-29T22:40:13.107Z,1.80
2023-03-29T22:42:41.574Z,2.15
2023-03-29T22:45:11.043Z,2.42
2023-03-29T22:47:39.475Z,1.95
2023-03-29T22:50:08.945Z,2.28
2023-03-29T22:52:38.790Z,2.33
2023-03-29T22:55:08.436Z,1.83
2023-03-29T22:57:36.810Z,1.52
2023-03-29T23:00:09.036Z,2.03
2023-03-29T23:02:38.190Z,1.73
2023-03-29T23:05:07.624Z,2.10
2023-03-29T23:07:36.940Z,2.00
2023-03-29T23:10:08.353Z,1.77
2023-03-29T23:12:37.120Z,2.13
2023-03-29T23:15:08.049Z,2.13
2023-03-29T23:17:37.074Z,1.70
2023-03-29T23:20:06.884Z,1.90
2023-03-29T23:22:36.312Z,1.83
2023-03-29T23:25:05.464Z,2.00
2023-03-29T23:27:35.496Z,1.80
2023-03-29T23:30:04.111Z,1.98
2023-03-29T23:32:32.649Z,1.63
2023-03-29T23:35:01.301Z,2.33
2023-03-29T23:37:29.804Z,1.60
2023-03-29T23:39:58.326Z,1.95
2023-03-29T23:42:26.764Z,1.98
2023-03-29T23:44:56.563Z,2.10
2023-03-29T23:47:26.991Z,1.92
2023-03-29T23:49:55.773Z,1.92
2023-03-29T23:52:24.141Z,1.90
2023-03-29T23:54:52.527Z,1.95
2023-03-29T23:57:21.342Z,1.92
2023-03-29T23:59:52.660Z,1.90
